createdAt,value
2022-10-21T00:00:18.911Z,89.88
2022-10-21T00:02:46.367Z,91.00
2022-10-21T00:05:13.394Z,79.53
2022-10-21T00:07:40.201Z,87.05
2022-10-21T00:10:07.662Z,85.28
2022-10-21T00:12:35.342Z,80.40
2022-10-21T00:15:07.393Z,88.65
2022-10-21T00:17:38.794Z,76.82
2022-10-21T00:20:08.867Z,85.78
2022-10-21T00:22:36.161Z,85.22
2022-10-21T00:25:04.314Z,87.88
2022-10-21T00:27:31.552Z,86.88
2022-10-21T00:29:58.160Z,88.47
2022-10-21T00:32:24.863Z,88.28
2022-10-21T00:34:51.653Z,87.97
2022-10-21T00:37:18.301Z,86.95
2022-10-21T00:39:45.365Z,82.43
2022-10-21T00:42:17.396Z,87.57
2022-10-21T00:45:01.141Z,87.35
2022-10-21T00:47:27.862Z,89.30
2022-10-21T00:50:01.089Z,83.22
2022-10-21T00:52:29.951Z,78.97
2022-10-21T00:54:58.037Z,86.63
2022-10-21T00:57:26.575Z,82.30
2022-10-21T00:59:57.510Z,93.95
2022-10-21T01:02:24.411Z,86.22
2022-10-21T01:04:58.449Z,83.93
2022-10-21T01:07:25.493Z,73.57
2022-10-21T01:09:52.113Z,90.10
2022-10-21T01:12:28.474Z,76.95
2022-10-21T01:15:36.716Z,83.97
2022-10-21T01:18:31.940Z,86.10
2022-10-21T01:21:09.972Z,82.75
2022-10-21T01:23:55.340Z,83.40
2022-10-21T01:29:25.339Z,82.53
2022-10-21T01:32:01.052Z,90.18
2022-10-21T01:34:56.094Z,72.85
2022-10-21T01:37:29.894Z,86.90
2022-10-21T01:40:12.047Z,85.20
2022-10-21T01:42:52.449Z,80.78
2022-10-21T01:45:22.528Z,83.95
2022-10-21T01:48:03.483Z,81.65
2022-10-21T01:50:34.827Z,78.03
2022-10-21T01:53:07.381Z,79.72
2022-10-21T01:55:36.018Z,82.32
2022-10-21T01:58:07.127Z,81.40
2022-10-21T02:00:36.236Z,78.72
2022-10-21T02:03:07.499Z,80.95
2022-10-21T02:05:35.115Z,86.07
2022-10-21T02:08:02.118Z,82.30
2022-10-21T02:10:35.079Z,77.88
2022-10-21T02:13:04.570Z,84.28
2022-10-21T02:15:33.470Z,72.90
2022-10-21T02:18:16.780Z,83.00
2022-10-21T02:20:45.174Z,72.97
2022-10-21T02:23:19.049Z,74.47
2022-10-21T02:25:49.594Z,82.40
2022-10-21T02:28:16.873Z,76.30
2022-10-21T02:31:01.185Z,83.80
2022-10-21T02:33:42.430Z,86.97
2022-10-21T02:36:14.211Z,79.75
2022-10-21T02:38:55.774Z,76.68
2022-10-21T02:41:24.623Z,79.63
2022-10-21T02:43:54.032Z,81.80
2022-10-21T02:46:21.098Z,85.88
2022-10-21T02:48:48.776Z,87.90
2022-10-21T02:51:16.052Z,81.07
2022-10-21T02:53:43.038Z,78.40
2022-10-21T02:56:09.795Z,88.13
2022-10-21T02:58:36.954Z,93.65
2022-10-21T03:01:03.768Z,80.72
2022-10-21T03:03:30.505Z,99.78
2022-10-21T03:05:57.661Z,106.43
2022-10-21T03:08:24.480Z,73.70
2022-10-21T03:10:53.274Z,84.00
2022-10-21T03:13:21.041Z,82.72
2022-10-21T03:15:49.751Z,77.55
2022-10-21T03:18:16.600Z,69.50
2022-10-21T03:20:43.530Z,69.53
2022-10-21T03:23:10.415Z,77.00
2022-10-21T03:25:37.044Z,74.45
2022-10-21T03:28:03.822Z,72.07
2022-10-21T03:30:30.446Z,53.90
2022-10-21T03:32:57.078Z,64.85
2022-10-21T03:35:23.769Z,63.15
2022-10-21T03:37:50.408Z,64.60
2022-10-21T03:40:17.208Z,60.28
2022-10-21T03:42:43.859Z,62.28
2022-10-21T03:45:11.161Z,55.67
2022-10-21T03:47:38.023Z,57.88
2022-10-21T03:50:08.897Z,58.05
2022-10-21T03:52:39.948Z,53.67
2022-10-21T03:55:07.622Z,50.13
2022-10-21T03:57:34.224Z,60.45
2022-10-21T04:00:00.945Z,60.42
2022-10-21T04:02:27.615Z,55.05
2022-10-21T04:04:54.236Z,52.47
2022-10-21T04:07:20.855Z,56.22
2022-10-21T04:09:47.522Z,50.47
2022-10-21T04:12:14.633Z,55.42
2022-10-21T04:14:41.230Z,54.13
2022-10-21T04:17:08.156Z,47.58
2022-10-21T04:19:35.134Z,46.08
2022-10-21T04:22:01.776Z,51.35
2022-10-21T04:24:28.386Z,55.65
2022-10-21T04:26:55.079Z,54.38
2022-10-21T04:29:21.896Z,52.03
2022-10-21T04:31:48.571Z,47.42
2022-10-21T04:34:15.491Z,50.53
2022-10-21T04:36:42.215Z,60.90
2022-10-21T04:39:08.855Z,54.45
2022-10-21T04:41:36.072Z,61.65
2022-10-21T04:44:03.912Z,56.28
2022-10-21T04:46:30.887Z,54.80
2022-10-21T04:48:57.538Z,52.53
2022-10-21T04:51:24.445Z,52.58
2022-10-21T04:53:51.162Z,58.88
2022-10-21T04:56:17.863Z,51.42
2022-10-21T04:58:44.502Z,53.97
2022-10-21T05:01:11.668Z,60.08
2022-10-21T05:03:38.394Z,51.40
2022-10-21T05:06:05.351Z,57.80
2022-10-21T05:08:32.004Z,54.45
2022-10-21T05:11:00.881Z,48.78
2022-10-21T05:13:28.621Z,48.58
2022-10-21T05:16:03.520Z,52.20
2022-10-21T05:18:30.648Z,53.20
2022-10-21T05:20:57.648Z,43.75
2022-10-21T05:23:25.848Z,53.20
2022-10-21T05:25:52.922Z,47.13
2022-10-21T05:28:20.659Z,58.67
2022-10-21T05:30:47.624Z,45.88
2022-10-21T05:33:14.503Z,46.10
2022-10-21T05:35:41.472Z,44.42
2022-10-21T05:38:08.125Z,42.08
2022-10-21T05:40:34.944Z,42.95
2022-10-21T05:43:01.722Z,46.00
2022-10-21T05:45:28.359Z,41.75
2022-10-21T05:47:55.078Z,40.55
2022-10-21T05:50:21.760Z,45.85
2022-10-21T05:52:48.351Z,41.67
2022-10-21T05:55:15.078Z,43.58
2022-10-21T05:57:41.876Z,37.78
2022-10-21T06:00:11.769Z,37.40
2022-10-21T06:02:38.736Z,45.25
2022-10-21T06:05:06.242Z,44.05
2022-10-21T06:07:32.880Z,43.25
2022-10-21T06:09:59.536Z,50.15
2022-10-21T06:12:26.226Z,54.78
2022-10-21T06:14:52.951Z,47.78
2022-10-21T06:17:20.124Z,39.83
2022-10-21T06:19:50.025Z,40.97
2022-10-21T06:22:17.718Z,44.67
2022-10-21T06:24:44.463Z,42.20
2022-10-21T06:27:11.231Z,41.28
2022-10-21T06:29:38.557Z,41.33
2022-10-21T06:32:05.437Z,34.20
2022-10-21T06:34:32.118Z,29.45
2022-10-21T06:36:58.788Z,30.60
2022-10-21T06:39:25.449Z,27.92
2022-10-21T06:41:52.123Z,35.45
2022-10-21T06:44:38.700Z,27.27
2022-10-21T06:47:05.336Z,29.42
2022-10-21T06:49:32.054Z,25.10
2022-10-21T06:51:58.641Z,29.50
2022-10-21T06:54:25.381Z,29.23
2022-10-21T06:56:52.070Z,33.05
2022-10-21T06:59:18.799Z,29.48
2022-10-21T07:01:59.612Z,30.05
2022-10-21T07:04:27.634Z,24.58
2022-10-21T07:06:54.451Z,24.25
2022-10-21T07:09:21.135Z,27.13
2022-10-21T07:11:47.835Z,27.73
2022-10-21T07:14:14.698Z,28.63
2022-10-21T07:16:41.501Z,29.67
2022-10-21T07:19:10.692Z,28.13
2022-10-21T07:21:37.353Z,29.17
2022-10-21T07:24:04.217Z,24.00
2022-10-21T07:26:32.701Z,26.08
2022-10-21T07:29:00.806Z,25.90
2022-10-21T07:31:30.734Z,21.83
2022-10-21T07:33:57.469Z,19.02
2022-10-21T07:36:26.986Z,22.77
2022-10-21T07:38:55.142Z,30.65
2022-10-21T07:41:25.698Z,27.65
2022-10-21T07:43:53.060Z,27.65
2022-10-21T07:46:21.182Z,18.75
2022-10-21T07:48:48.534Z,26.08
2022-10-21T07:51:19.234Z,16.98
2022-10-21T07:53:48.150Z,24.52
2022-10-21T07:56:18.097Z,21.70
2022-10-21T07:58:46.865Z,21.33
2022-10-21T08:01:15.159Z,19.30
2022-10-21T08:03:42.032Z,18.35
2022-10-21T08:06:09.892Z,23.35
2022-10-21T08:08:37.197Z,20.83
2022-10-21T08:11:05.117Z,25.45
2022-10-21T08:13:32.066Z,22.95
2022-10-21T08:15:59.129Z,20.98
2022-10-21T08:18:26.237Z,20.60
2022-10-21T08:20:52.898Z,23.63
2022-10-21T08:23:22.623Z,25.92
2022-10-21T08:25:55.734Z,24.92
2022-10-21T08:28:23.950Z,25.30
2022-10-21T08:30:51.017Z,25.27
2022-10-21T08:33:17.998Z,23.75
2022-10-21T08:35:45.020Z,23.73
2022-10-21T08:38:11.965Z,21.02
2022-10-21T08:40:44.933Z,23.55
2022-10-21T08:43:19.926Z,22.25
2022-10-21T08:48:38.584Z,22.80
2022-10-21T08:51:07.168Z,24.30
2022-10-21T08:53:41.436Z,29.88
2022-10-21T08:56:19.318Z,21.55
2022-10-21T08:58:50.671Z,22.48
2022-10-21T09:01:24.012Z,22.42
2022-10-21T09:04:27.437Z,18.10
2022-10-21T09:07:02.592Z,27.73
2022-10-21T09:09:46.144Z,21.38
2022-10-21T09:12:35.106Z,20.20
2022-10-21T09:15:23.506Z,17.65
2022-10-21T09:18:18.100Z,17.60
2022-10-21T09:21:04.704Z,18.27
2022-10-21T09:24:02.643Z,19.60
2022-10-21T09:26:41.714Z,23.20
2022-10-21T09:29:26.689Z,21.55
2022-10-21T09:32:02.424Z,21.77
2022-10-21T09:34:49.713Z,20.52
2022-10-21T09:37:51.054Z,18.23
2022-10-21T09:40:23.824Z,22.10
2022-10-21T09:42:55.981Z,20.85
2022-10-21T09:45:31.901Z,21.45
2022-10-21T09:48:19.053Z,22.55
2022-10-21T09:50:48.537Z,24.60
2022-10-21T09:53:25.549Z,23.92
2022-10-21T09:55:59.160Z,23.75
2022-10-21T09:58:31.105Z,24.73
2022-10-21T10:00:58.682Z,22.75
2022-10-21T10:03:32.680Z,23.98
2022-10-21T10:06:00.061Z,23.92
2022-10-21T10:08:28.954Z,28.27
2022-10-21T10:11:18.077Z,27.02
2022-10-21T10:13:51.108Z,24.38
2022-10-21T10:16:29.611Z,25.20
2022-10-21T10:19:16.725Z,24.55
2022-10-21T10:21:45.048Z,22.88
2022-10-21T10:24:20.564Z,31.35
2022-10-21T10:26:49.115Z,31.27
2022-10-21T10:29:15.678Z,28.50
2022-10-21T10:31:52.886Z,21.10
2022-10-21T10:34:49.186Z,26.15
2022-10-21T10:37:19.772Z,25.85
2022-10-21T10:39:49.112Z,23.45
2022-10-21T10:42:23.843Z,30.15
2022-10-21T10:44:57.454Z,27.38
2022-10-21T10:47:42.279Z,28.48
2022-10-21T10:50:47.319Z,28.02
2022-10-21T10:53:33.742Z,33.05
2022-10-21T10:56:35.728Z,31.95
2022-10-21T10:59:34.343Z,33.03
2022-10-21T11:02:08.876Z,33.60
2022-10-21T11:04:37.965Z,42.92
2022-10-21T11:07:07.630Z,37.15
2022-10-21T11:09:34.537Z,41.78
2022-10-21T11:12:05.906Z,39.17
2022-10-21T11:14:32.567Z,46.03
2022-10-21T11:17:07.807Z,42.00
2022-10-21T11:19:48.865Z,53.00
2022-10-21T11:22:37.502Z,56.33
2022-10-21T11:25:07.123Z,49.80
2022-10-21T11:27:52.183Z,49.00
2022-10-21T11:30:22.387Z,51.50
2022-10-21T11:33:04.437Z,50.15
2022-10-21T11:35:58.033Z,47.72
2022-10-21T11:38:41.708Z,52.35
2022-10-21T11:41:25.560Z,53.50
2022-10-21T11:44:29.237Z,42.38
2022-10-21T11:47:08.324Z,52.78
2022-10-21T11:49:58.109Z,40.10
2022-10-21T11:52:45.354Z,43.03
2022-10-21T11:55:42.994Z,38.10
2022-10-21T11:58:18.400Z,42.10
2022-10-21T12:01:10.705Z,36.25
2022-10-21T12:04:12.469Z,40.42
2022-10-21T12:07:11.581Z,46.05
2022-10-21T12:09:53.958Z,46.38
2022-10-21T12:12:32.568Z,42.80
2022-10-21T12:15:04.013Z,46.83
2022-10-21T12:17:34.366Z,43.40
2022-10-21T12:20:06.294Z,46.90
2022-10-21T12:22:34.484Z,43.63
2022-10-21T12:25:12.393Z,46.80
2022-10-21T12:27:47.455Z,51.08
2022-10-21T12:33:14.678Z,35.47
2022-10-21T12:35:50.242Z,38.55
2022-10-21T12:38:23.377Z,44.72
2022-10-21T12:41:10.718Z,43.58
2022-10-21T12:43:38.992Z,42.33
2022-10-21T12:46:10.991Z,45.22
2022-10-21T12:48:49.532Z,36.35
2022-10-21T12:51:26.696Z,33.70
2022-10-21T12:54:03.810Z,34.47
2022-10-21T12:56:32.105Z,28.73
2022-10-21T12:59:05.793Z,39.50
2022-10-21T13:01:40.368Z,34.97
2022-10-21T13:04:39.302Z,42.00
2022-10-21T13:07:25.892Z,44.88
2022-10-21T13:09:53.847Z,32.58
2022-10-21T13:12:23.700Z,31.00
2022-10-21T13:15:02.491Z,27.58
2022-10-21T13:17:48.894Z,27.67
2022-10-21T13:20:15.491Z,29.13
2022-10-21T13:22:43.901Z,33.20
2022-10-21T13:25:20.743Z,34.97
2022-10-21T13:28:03.245Z,28.90
2022-10-21T13:30:36.872Z,36.92
2022-10-21T13:33:17.032Z,29.05
2022-10-21T13:35:45.469Z,26.73
2022-10-21T13:38:26.189Z,32.22
2022-10-21T13:40:59.116Z,32.72
2022-10-21T13:43:29.125Z,29.70
2022-10-21T13:46:07.007Z,29.73
2022-10-21T13:48:39.342Z,25.70
2022-10-21T13:51:19.576Z,25.92
2022-10-21T13:53:47.272Z,28.08
2022-10-21T13:56:23.446Z,23.83
2022-10-21T13:58:50.107Z,24.13
2022-10-21T14:01:21.659Z,23.58
2022-10-21T14:03:53.231Z,19.73
2022-10-21T14:06:32.138Z,22.58
2022-10-21T14:09:04.788Z,17.60
2022-10-21T14:11:37.537Z,16.55
2022-10-21T14:14:09.448Z,20.95
2022-10-21T14:16:40.763Z,21.52
2022-10-21T14:19:18.180Z,15.65
2022-10-21T14:21:47.721Z,18.52
2022-10-21T14:24:44.036Z,17.75
2022-10-21T14:27:14.488Z,15.20
2022-10-21T14:29:43.784Z,10.43
2022-10-21T14:32:15.408Z,13.68
2022-10-21T14:35:10.166Z,14.45
2022-10-21T14:37:43.813Z,17.67
2022-10-21T14:40:26.675Z,12.52
2022-10-21T14:42:55.109Z,11.27
2022-10-21T14:45:26.983Z,11.32
2022-10-21T14:48:17.027Z,12.27
2022-10-21T14:50:51.507Z,11.02
2022-10-21T14:53:21.451Z,10.30
2022-10-21T14:55:53.839Z,11.35
2022-10-21T14:58:25.856Z,10.55
2022-10-21T15:00:59.080Z,10.93
2022-10-21T15:03:46.977Z,10.60
2022-10-21T15:06:26.177Z,11.43
2022-10-21T15:08:55.798Z,12.77
2022-10-21T15:11:35.393Z,11.60
2022-10-21T15:14:14.495Z,11.50
2022-10-21T15:16:56.134Z,13.43
2022-10-21T15:19:47.107Z,13.50
2022-10-21T15:22:37.921Z,17.15
2022-10-21T15:25:08.728Z,12.65
2022-10-21T15:27:43.067Z,13.70
2022-10-21T15:30:13.048Z,16.60
2022-10-21T15:32:39.826Z,17.45
2022-10-21T15:35:13.097Z,18.40
2022-10-21T15:37:40.039Z,19.50
2022-10-21T15:40:07.240Z,17.88
2022-10-21T15:42:33.869Z,20.30
2022-10-21T15:45:01.866Z,27.92
2022-10-21T15:47:28.519Z,18.80
2022-10-21T15:49:56.066Z,18.02
2022-10-21T15:52:22.839Z,15.43
2022-10-21T15:54:49.441Z,23.95
2022-10-21T15:57:21.739Z,24.33
2022-10-21T15:59:48.646Z,37.70
2022-10-21T16:02:17.605Z,29.48
2022-10-21T16:04:45.286Z,39.90
2022-10-21T16:07:20.175Z,31.08
2022-10-21T16:09:47.539Z,25.15
2022-10-21T16:12:16.253Z,22.67
2022-10-21T16:14:42.885Z,15.88
2022-10-21T16:17:11.376Z,20.38
2022-10-21T16:19:37.987Z,15.57
2022-10-21T16:22:16.217Z,13.75
2022-10-21T16:24:42.894Z,15.32
2022-10-21T16:27:12.344Z,14.88
2022-10-21T16:29:39.556Z,15.65
2022-10-21T16:32:06.637Z,28.73
2022-10-21T16:37:31.587Z,22.00
2022-10-21T16:39:59.575Z,17.92
2022-10-21T16:42:26.219Z,17.08
2022-10-21T16:44:52.895Z,21.98
2022-10-21T16:47:21.532Z,16.88
2022-10-21T16:49:49.164Z,19.02
2022-10-21T16:56:07.425Z,30.70
2022-10-21T16:58:34.715Z,29.58
2022-10-21T17:01:03.721Z,39.65
2022-10-21T17:03:30.962Z,53.80
2022-10-21T17:05:57.676Z,32.10
2022-10-21T17:08:24.473Z,40.17
2022-10-21T17:11:50.753Z,57.88
2022-10-21T17:14:19.931Z,45.42
2022-10-21T17:16:47.104Z,50.83
2022-10-21T17:19:14.679Z,41.85
2022-10-21T17:21:42.587Z,56.47
2022-10-21T17:24:14.983Z,84.13
2022-10-21T17:27:15.874Z,36.20
2022-10-21T17:29:45.544Z,47.60
2022-10-21T17:32:13.031Z,37.58
2022-10-21T17:34:40.391Z,69.25
2022-10-21T17:37:09.779Z,60.72
2022-10-21T17:39:36.581Z,80.13
2022-10-21T17:42:03.461Z,72.63
2022-10-21T17:44:30.621Z,69.72
2022-10-21T17:46:57.342Z,160.20
2022-10-21T17:49:26.160Z,121.40
2022-10-21T17:51:52.976Z,156.27
2022-10-21T17:54:24.122Z,102.30
2022-10-21T17:56:56.557Z,81.65
2022-10-21T17:59:23.646Z,61.75
2022-10-21T18:01:50.434Z,81.05
2022-10-21T18:04:18.805Z,90.85
2022-10-21T18:06:47.649Z,52.40
2022-10-21T18:09:14.419Z,38.70
2022-10-21T18:11:41.179Z,38.47
2022-10-21T18:14:08.277Z,51.55
2022-10-21T18:16:36.459Z,72.78
2022-10-21T18:19:03.408Z,30.05
2022-10-21T18:21:31.332Z,33.10
2022-10-21T18:24:00.295Z,56.17
2022-10-21T18:26:34.036Z,49.45
2022-10-21T18:29:03.996Z,86.70
2022-10-21T18:31:34.864Z,64.45
2022-10-21T18:34:05.939Z,48.97
2022-10-21T18:36:33.246Z,36.15
2022-10-21T18:39:03.574Z,51.67
2022-10-21T18:41:30.445Z,41.80
2022-10-21T18:44:04.568Z,42.60
2022-10-21T18:46:33.114Z,23.27
2022-10-21T18:49:01.978Z,28.50
2022-10-21T18:51:28.917Z,27.92
2022-10-21T18:53:55.607Z,30.90
2022-10-21T18:56:27.184Z,27.00
2022-10-21T18:58:56.242Z,86.85
2022-10-21T19:01:25.348Z,57.33
2022-10-21T19:03:56.062Z,23.52
2022-10-21T19:06:41.336Z,22.15
2022-10-21T19:09:24.592Z,25.88
2022-10-21T19:11:52.199Z,23.15
2022-10-21T19:14:19.607Z,23.73
2022-10-21T19:16:48.136Z,28.15
2022-10-21T19:19:17.063Z,28.23
2022-10-21T19:21:49.855Z,29.23
2022-10-21T19:24:16.590Z,30.02
2022-10-21T19:26:50.428Z,28.30
2022-10-21T19:29:19.723Z,38.55
2022-10-21T19:34:22.398Z,63.72
2022-10-21T19:36:49.680Z,66.38
2022-10-21T19:39:16.635Z,76.65
2022-10-21T19:41:44.486Z,67.38
2022-10-21T19:44:11.233Z,109.88
2022-10-21T19:46:38.101Z,102.47
2022-10-21T19:49:06.543Z,103.53
2022-10-21T19:51:33.775Z,71.43
2022-10-21T19:54:04.031Z,121.97
2022-10-21T19:56:34.018Z,82.68
2022-10-21T19:59:02.437Z,56.70
2022-10-21T20:01:29.777Z,60.38
2022-10-21T20:03:56.535Z,49.90
2022-10-21T20:06:31.894Z,70.75
2022-10-21T20:09:01.675Z,95.30
2022-10-21T20:11:29.340Z,44.60
2022-10-21T20:13:56.852Z,27.05
2022-10-21T20:16:32.488Z,29.40
2022-10-21T20:19:01.235Z,53.95
2022-10-21T20:21:29.571Z,27.25
2022-10-21T20:23:57.382Z,33.92
2022-10-21T20:26:24.136Z,23.13
2022-10-21T20:28:51.280Z,24.35
2022-10-21T20:31:18.121Z,21.85
2022-10-21T20:33:50.341Z,18.70
2022-10-21T20:36:21.596Z,21.25
2022-10-21T20:38:49.475Z,24.63
2022-10-21T20:41:21.461Z,24.35
2022-10-21T20:43:49.089Z,36.35
2022-10-21T20:46:15.785Z,25.15
2022-10-21T20:48:44.516Z,40.83
2022-10-21T20:51:21.184Z,29.55
2022-10-21T20:53:59.341Z,30.23
2022-10-21T20:56:32.324Z,19.13
2022-10-21T20:58:59.783Z,26.98
2022-10-21T21:01:30.790Z,29.80
2022-10-21T21:04:00.434Z,30.52
2022-10-21T21:06:28.927Z,42.75
2022-10-21T21:09:22.492Z,39.15
2022-10-21T21:11:42.250Z,39.50
2022-10-21T21:14:08.973Z,41.22
2022-10-21T21:16:35.864Z,53.97
2022-10-21T21:19:04.988Z,47.42
2022-10-21T21:21:34.699Z,46.30
2022-10-21T21:24:01.768Z,55.95
2022-10-21T21:26:30.931Z,56.67
2022-10-21T21:28:57.964Z,76.47
2022-10-21T21:31:26.889Z,58.08
2022-10-21T21:33:54.442Z,52.58
2022-10-21T21:36:22.571Z,56.67
2022-10-21T21:38:50.350Z,62.63
2022-10-21T21:41:18.077Z,40.03
2022-10-21T21:43:46.369Z,41.65
2022-10-21T21:46:13.706Z,47.85
2022-10-21T21:48:43.123Z,46.83
2022-10-21T21:51:12.794Z,48.70
2022-10-21T21:53:39.951Z,38.97
2022-10-21T21:56:07.586Z,52.28
2022-10-21T21:58:34.586Z,52.88
2022-10-21T22:01:09.345Z,43.15
2022-10-21T22:03:36.121Z,52.35
2022-10-21T22:06:02.905Z,53.53
2022-10-21T22:08:29.592Z,46.22
2022-10-21T22:10:56.353Z,33.55
2022-10-21T22:13:23.071Z,38.42
2022-10-21T22:15:49.767Z,34.03
2022-10-21T22:18:16.456Z,47.33
2022-10-21T22:20:43.046Z,40.83
2022-10-21T22:23:09.682Z,51.17
2022-10-21T22:25:36.348Z,63.70
2022-10-21T22:28:03.264Z,54.47
2022-10-21T22:30:30.265Z,55.00
2022-10-21T22:32:56.913Z,65.70
2022-10-21T22:35:23.628Z,68.55
2022-10-21T22:37:50.227Z,61.60
2022-10-21T22:40:16.936Z,43.17
2022-10-21T22:45:11.176Z,49.15
2022-10-21T22:47:38.105Z,31.42
2022-10-21T22:50:05.359Z,34.38
2022-10-21T22:52:32.150Z,36.80
2022-10-21T22:54:58.783Z,35.42
2022-10-21T22:57:25.412Z,33.25
2022-10-21T22:59:53.412Z,47.30
2022-10-21T23:02:21.095Z,35.75
2022-10-21T23:04:47.721Z,31.08
2022-10-21T23:07:14.416Z,50.20
2022-10-21T23:09:41.077Z,36.50
2022-10-21T23:12:07.983Z,40.58
2022-10-21T23:14:35.024Z,52.40
2022-10-21T23:17:01.675Z,44.50
2022-10-21T23:19:28.356Z,37.65
2022-10-21T23:21:55.031Z,46.15
2022-10-21T23:24:21.657Z,37.33
2022-10-21T23:26:48.306Z,42.40
2022-10-21T23:29:14.969Z,38.42
2022-10-21T23:31:41.663Z,43.10
2022-10-21T23:34:09.332Z,57.22
2022-10-21T23:36:36.228Z,60.72
2022-10-21T23:39:02.963Z,67.75
2022-10-21T23:41:29.643Z,62.50
2022-10-21T23:43:56.282Z,59.35
2022-10-21T23:46:23.034Z,52.85
2022-10-21T23:48:50.063Z,67.35
2022-10-21T23:51:16.955Z,70.43
2022-10-21T23:53:43.663Z,59.22
2022-10-21T23:56:10.279Z,43.95
2022-10-21T23:58:37.001Z,57.85
